Impacts TAF Board
For situational awareness. Not to be used for flight planning purposes.
IDs:

KPHL - Philadelphia Intl, PA, US

Issued at 1250 UTC 30 Mar 2020
Updated at 1326 UTC 30 Mar 2020
Potential Impact None Slight Moderate High
Time1323Z 30/14Z 30/15Z 30/16Z 30/17Z 30/18Z 30/19Z 30/20Z 30/21Z 30/22Z 30/23Z 31/00Z 31/01Z 31/02Z>>
Type OBS PRVL
  [TEMP]  
PRVL PRVL PRVL PRVL PRVL PRVL PRVL PRVL PRVL PRVL PRVL PRVL
VIS 3 >6 >6 >6 >6 >6 >6 >6 >6 >6 >6 >6 >6 >6
CIG 4 50
  [10]  
50 50 50 50 50 50 50 50 -- -- -- --
Cover OVC BKN
  [BKN]  
BKN BKN BKN BKN BKN BKN BKN BKN SCT SCT SCT SCT
FltCat LIFR VFR
  [MVFR]  
VFR VFR VFR VFR VFR VFR VFR VFR VFR VFR VFR VFR
WX BR --
  [--]  
-- -- -- -- -- -- -- -- -- -- -- --
WDir 200 220
[220]
220 220 250 250 250 250 250 250 300 300 300 300
WSpd 5 6
  [6]  
6 6 14 14 14 14 14 14 12 12 12 12
WGst -- --
  [--]  
-- -- 26 26 26 26 26 26 -- -- -- --
Raw TAF
KPHL 301250Z 3013/3118 VRB04KT 2SM BR OVC004
  TEMPO 3013/3014 6SM SCT004 BKN015
  FM301400 22006KT P6SM SCT010 BKN050
  TEMPO 3014/3015 BKN010
  FM301700 25014G26KT P6SM BKN050
  FM302300 30012KT P6SM SCT060
  FM310800 33006KT P6SM BKN040
  FM311100 01006KT P6SM BKN020


Raw METAR
KPHL 301323Z 20005KT 3SM BR OVC004 09/07 A2999 RMK AO2 T00890072 CHINO W $
KPHL 301254Z 21004KT 2SM BR OVC004 09/07 A2999 RMK AO2 SLP155 T00890072 CHINO W $
KPHL 301243Z 22004KT 2SM BR OVC004 09/07 A2999 RMK AO2 T00890072 CHINO W $
KPHL 301154Z 00000KT 4SM BR OVC004 09/07 A3000 RMK AO2 SLP157 T00890072 10094 20083 53021 CHINO W $
KPHL 301135Z 11004KT 4SM BR OVC004 09/07 A2998 RMK AO2 T00890072 CHINO W $
KPHL 301054Z 07004KT 6SM BR OVC004 09/07 A2997 RMK AO2 SLP148 T00890072 CHINO W $
KPHL 301033Z 06007KT 7SM OVC004 09/07 A2995 RMK AO2 CHINO W T00890072 $

METAR Board
Radar Display
Forecast Discussion
For situational awareness. Not to be used for flight planning purposes.